Time;durP1;ratioP1;P1;durP2;ratioP2;P2;SDS_P1;SDS_P2;PMS_P1;PMS_P2;Temp;Humidity;BMP_temperature;BMP_pressure;BME280_temperature;BME280_humidity;BME280_pressure;Samples;Min_cycle;Max_cycle;Signal;HPM_P1;HPM_P2
2022/03/16 00:01:30;;;;;;;98.05;49.28;;;9.20;99.90;;;;;;5073094;28;20082;-72
2022/03/16 00:03:56;;;;;;;103.68;50.03;;;9.20;99.90;;;;;;5073060;28;20036;-72
2022/03/16 00:06:22;;;;;;;103.15;51.22;;;9.20;99.90;;;;;;5054993;28;20025;-72
2022/03/16 00:08:47;;;;;;;110.82;51.10;;;9.20;99.90;;;;;;5073069;28;20491;-72
2022/03/16 00:11:13;;;;;;;97.43;50.15;;;9.20;99.90;;;;;;5072913;28;20206;-72
2022/03/16 00:13:39;;;;;;;100.70;48.97;;;9.20;99.90;;;;;;5072824;28;20479;-72
2022/03/16 00:16:05;;;;;;;100.85;50.25;;;9.20;99.90;;;;;;5072754;28;20031;-72
2022/03/16 00:18:31;;;;;;;102.32;50.65;;;9.20;99.90;;;;;;5072606;28;20060;-72
2022/03/16 00:20:58;;;;;;;106.10;50.45;;;9.20;99.90;;;;;;5072567;28;20036;-72
2022/03/16 00:23:25;;;;;;;106.30;50.28;;;9.10;99.90;;;;;;5072416;28;20032;-72
2022/03/16 00:25:51;;;;;;;103.45;50.67;;;9.20;99.90;;;;;;5073240;28;20032;-72
2022/03/16 00:28:17;;;;;;;104.22;51.13;;;9.20;99.90;;;;;;5080951;28;20024;-72
2022/03/16 00:30:42;;;;;;;102.78;50.20;;;9.20;99.90;;;;;;5089231;28;20111;-72
2022/03/16 00:33:08;;;;;;;107.43;54.58;;;9.20;99.90;;;;;;5072833;28;20507;-72
2022/03/16 00:35:34;;;;;;;102.15;50.42;;;9.10;99.90;;;;;;5073172;28;20067;-72
2022/03/16 00:38:00;;;;;;;104.15;51.03;;;9.10;99.90;;;;;;5073040;28;20060;-72
2022/03/16 00:40:26;;;;;;;102.90;51.95;;;9.10;99.90;;;;;;5072632;28;20029;-72
2022/03/16 00:42:51;;;;;;;105.15;52.05;;;9.10;99.90;;;;;;5054366;28;20028;-72
2022/03/16 00:45:17;;;;;;;99.07;50.70;;;9.10;99.90;;;;;;5072665;28;20146;-72
2022/03/16 00:47:43;;;;;;;105.13;49.50;;;9.10;99.90;;;;;;5072393;28;20020;-72
2022/03/16 00:50:09;;;;;;;103.95;49.60;;;9.00;99.90;;;;;;5072437;28;20107;-72
2022/03/16 00:52:35;;;;;;;107.55;49.95;;;9.10;99.90;;;;;;5072474;28;20025;-72
2022/03/16 00:55:00;;;;;;;106.25;51.53;;;9.10;99.90;;;;;;5072071;28;20094;-72
2022/03/16 00:57:26;;;;;;;103.90;50.92;;;9.10;99.90;;;;;;5072152;28;20027;-72
2022/03/16 00:59:52;;;;;;;104.85;49.53;;;9.10;99.90;;;;;;5072255;28;20369;-72
2022/03/16 01:02:18;;;;;;;106.82;50.42;;;9.10;99.90;;;;;;5071875;28;20483;-72
2022/03/16 01:04:43;;;;;;;104.10;52.58;;;9.10;99.90;;;;;;5071907;28;20043;-72
2022/03/16 01:07:09;;;;;;;94.57;48.83;;;9.10;99.90;;;;;;5072246;28;20045;-72
2022/03/16 01:09:35;;;;;;;95.38;49.20;;;9.10;99.90;;;;;;5071871;28;20017;-72
2022/03/16 01:12:03;;;;;;;100.70;50.50;;;9.10;99.90;;;;;;5071902;28;20108;-72
2022/03/16 01:14:29;;;;;;;106.68;51.35;;;9.10;99.90;;;;;;5053910;28;20028;-72
2022/03/16 01:16:54;;;;;;;104.25;50.80;;;9.10;99.90;;;;;;5053681;28;20464;-72
2022/03/16 01:19:20;;;;;;;110.30;52.67;;;9.10;99.90;;;;;;5071671;28;20522;-72
2022/03/16 01:21:46;;;;;;;103.53;52.08;;;9.00;99.90;;;;;;5072047;28;20032;-72
2022/03/16 01:24:12;;;;;;;98.03;51.13;;;9.00;99.90;;;;;;5071109;28;20020;-72
2022/03/16 01:26:38;;;;;;;103.65;52.22;;;9.00;99.90;;;;;;5071714;28;20379;-72
2022/03/16 01:29:04;;;;;;;104.57;51.20;;;9.00;99.90;;;;;;5071562;28;20032;-72
2022/03/16 01:31:30;;;;;;;109.82;52.22;;;9.10;99.90;;;;;;5071448;28;20434;-72
2022/03/16 01:33:55;;;;;;;104.55;52.10;;;9.10;99.90;;;;;;5071534;28;20036;-72
2022/03/16 01:36:21;;;;;;;113.13;52.42;;;9.10;99.90;;;;;;5071097;28;20037;-72
2022/03/16 01:38:47;;;;;;;102.60;52.25;;;9.10;99.90;;;;;;5071369;28;20052;-73
2022/03/16 01:41:14;;;;;;;99.78;52.10;;;9.10;99.90;;;;;;5053635;28;20039;-72
2022/03/16 01:43:40;;;;;;;114.72;53.13;;;9.10;99.90;;;;;;5071476;28;20074;-72
2022/03/16 01:46:05;;;;;;;107.43;51.15;;;9.00;99.90;;;;;;5071349;28;20028;-72
2022/03/16 01:48:31;;;;;;;106.75;52.40;;;9.00;99.90;;;;;;5053522;28;20021;-72
2022/03/16 01:50:57;;;;;;;108.88;52.40;;;9.00;99.90;;;;;;5071255;28;20017;-72
2022/03/16 01:53:27;;;;;;;103.60;50.53;;;9.00;99.90;;;;;;5071349;28;20024;-72
2022/03/16 01:55:53;;;;;;;107.55;51.78;;;9.00;99.90;;;;;;5071245;28;20032;-72
2022/03/16 01:58:19;;;;;;;106.22;53.53;;;9.00;99.90;;;;;;5053384;28;20025;-72
2022/03/16 02:00:45;;;;;;;108.03;53.55;;;9.00;99.90;;;;;;5071077;28;20455;-72
2022/03/16 02:03:11;;;;;;;109.63;54.10;;;9.00;99.90;;;;;;5071146;28;20387;-72
2022/03/16 02:05:38;;;;;;;103.85;51.55;;;9.00;99.90;;;;;;5053284;28;20027;-72
2022/03/16 02:08:05;;;;;;;105.95;52.15;;;9.00;99.90;;;;;;5071262;28;20063;-72
2022/03/16 02:10:32;;;;;;;99.55;50.97;;;9.00;99.90;;;;;;5053021;28;20075;-72
2022/03/16 02:12:58;;;;;;;104.68;52.50;;;9.00;99.90;;;;;;5071199;28;20025;-72
2022/03/16 02:15:23;;;;;;;111.13;53.10;;;9.00;99.90;;;;;;5053110;28;20487;-72
2022/03/16 02:17:50;;;;;;;106.10;51.05;;;8.90;99.90;;;;;;5070957;28;20025;-72
2022/03/16 02:20:17;;;;;;;110.30;53.72;;;9.00;99.90;;;;;;5071164;28;20024;-72
2022/03/16 02:22:59;;;;;;;100.53;51.83;;;9.00;99.90;;;;;;5055456;28;20025;-72
2022/03/16 02:25:27;;;;;;;108.88;52.97;;;8.90;99.90;;;;;;5071027;28;20616;-72
2022/03/16 02:27:53;;;;;;;103.68;51.47;;;8.90;99.90;;;;;;5070909;28;20027;-72
2022/03/16 02:30:21;;;;;;;104.10;52.40;;;8.90;99.90;;;;;;5071052;28;20384;-72
2022/03/16 02:32:47;;;;;;;112.30;54.30;;;8.90;99.90;;;;;;5070985;28;20021;-72
2022/03/16 02:35:13;;;;;;;110.25;53.50;;;8.90;99.90;;;;;;5052776;28;20024;-72
2022/03/16 02:37:39;;;;;;;111.32;53.17;;;8.90;99.90;;;;;;5071046;28;20024;-72
2022/03/16 02:40:08;;;;;;;105.95;53.38;;;8.80;99.90;;;;;;5052808;28;20112;-72
2022/03/16 02:42:34;;;;;;;119.95;56.70;;;8.80;99.90;;;;;;5052702;28;20198;-72
2022/03/16 02:45:00;;;;;;;107.30;53.80;;;8.80;99.90;;;;;;5070622;28;20024;-72
2022/03/16 02:47:27;;;;;;;117.75;56.00;;;8.80;99.90;;;;;;5072703;28;20100;-72
2022/03/16 02:49:54;;;;;;;106.07;53.38;;;8.80;99.90;;;;;;5074349;28;20021;-72
2022/03/16 02:52:22;;;;;;;106.68;52.80;;;8.70;99.90;;;;;;5074381;28;20024;-72
2022/03/16 02:54:48;;;;;;;103.20;53.15;;;8.70;99.90;;;;;;5074270;28;20486;-72
2022/03/16 02:57:16;;;;;;;106.75;54.55;;;8.70;99.90;;;;;;5056708;28;20111;-72
2022/03/16 02:59:42;;;;;;;113.95;54.75;;;8.70;99.90;;;;;;5056886;28;20035;-72
2022/03/16 03:02:08;;;;;;;112.35;53.72;;;8.70;99.90;;;;;;5074253;28;20020;-72
2022/03/16 03:04:34;;;;;;;116.18;54.47;;;8.70;99.90;;;;;;5056287;28;20025;-72
2022/03/16 03:07:05;;;;;;;106.72;53.63;;;8.70;99.90;;;;;;5074112;28;20021;-72
2022/03/16 03:09:31;;;;;;;104.03;54.05;;;8.70;99.90;;;;;;5056081;28;20024;-72
2022/03/16 03:11:59;;;;;;;115.93;51.47;;;8.70;99.90;;;;;;5074001;28;20016;-72
2022/03/16 03:14:28;;;;;;;102.68;54.03;;;8.70;99.90;;;;;;5074019;28;20111;-72
2022/03/16 03:16:54;;;;;;;110.65;55.55;;;8.70;99.90;;;;;;5074165;28;20077;-72
2022/03/16 03:19:21;;;;;;;107.43;53.35;;;8.70;99.90;;;;;;5073791;28;20048;-72
2022/03/16 03:21:47;;;;;;;109.50;54.97;;;8.70;99.90;;;;;;5055765;28;20047;-72
2022/03/16 03:24:13;;;;;;;113.32;55.75;;;8.70;99.90;;;;;;5073798;28;20032;-72
2022/03/16 03:26:39;;;;;;;108.30;52.78;;;8.70;99.90;;;;;;5073767;28;20020;-72
2022/03/16 03:29:04;;;;;;;106.75;54.80;;;8.70;99.90;;;;;;5073395;28;20016;-72
2022/03/16 03:31:30;;;;;;;105.30;53.13;;;8.60;99.90;;;;;;5073846;28;20021;-72
2022/03/16 03:33:56;;;;;;;116.68;56.95;;;8.60;99.90;;;;;;5073708;28;20048;-72
2022/03/16 03:36:22;;;;;;;116.85;56.95;;;8.60;99.90;;;;;;5073421;28;20016;-72
2022/03/16 03:38:48;;;;;;;109.13;54.63;;;8.60;99.90;;;;;;5073605;28;20025;-72
2022/03/16 03:41:13;;;;;;;116.68;57.00;;;8.60;99.90;;;;;;5073338;28;20059;-72
2022/03/16 03:43:39;;;;;;;111.57;53.55;;;8.60;99.90;;;;;;5073371;28;20070;-72
2022/03/16 03:46:05;;;;;;;109.28;55.60;;;8.70;99.90;;;;;;5073595;28;20025;-72
2022/03/16 03:48:31;;;;;;;109.57;54.60;;;8.70;99.90;;;;;;5055289;28;20016;-72
2022/03/16 03:50:56;;;;;;;120.93;55.88;;;8.70;99.90;;;;;;5073324;28;20108;-72
2022/03/16 03:53:22;;;;;;;110.00;55.00;;;8.70;99.90;;;;;;5073177;28;20025;-72
2022/03/16 03:55:48;;;;;;;115.63;55.08;;;8.70;99.90;;;;;;5073074;28;20032;-72
2022/03/16 03:58:14;;;;;;;112.95;54.25;;;8.60;99.90;;;;;;5054748;28;20031;-72
2022/03/16 04:00:39;;;;;;;111.82;53.72;;;8.60;99.90;;;;;;5055164;28;20461;-72
2022/03/16 04:03:05;;;;;;;106.90;54.33;;;8.60;99.90;;;;;;5072990;28;20396;-72
2022/03/16 04:05:31;;;;;;;111.30;55.40;;;8.60;99.90;;;;;;5072886;28;20021;-72
2022/03/16 04:07:57;;;;;;;108.45;55.78;;;8.60;99.90;;;;;;5072976;28;20108;-72
2022/03/16 04:10:23;;;;;;;115.88;57.40;;;8.60;99.90;;;;;;5072960;28;20021;-72
2022/03/16 04:12:49;;;;;;;113.25;56.50;;;8.60;99.90;;;;;;5073023;28;20048;-72
2022/03/16 04:15:15;;;;;;;110.47;55.33;;;8.60;99.90;;;;;;5072579;28;20024;-72
2022/03/16 04:17:41;;;;;;;126.50;55.42;;;8.50;99.90;;;;;;5072767;28;20025;-72
2022/03/16 04:20:07;;;;;;;116.68;56.78;;;8.50;99.90;;;;;;5072630;28;20047;-72
2022/03/16 04:22:33;;;;;;;115.90;58.28;;;8.50;99.90;;;;;;5054716;28;20031;-72
2022/03/16 04:24:59;;;;;;;111.78;55.10;;;8.50;99.90;;;;;;5072536;28;20020;-72
2022/03/16 04:27:29;;;;;;;113.43;56.42;;;8.50;99.90;;;;;;5072610;28;20029;-72
2022/03/16 04:29:55;;;;;;;113.15;56.08;;;8.50;99.90;;;;;;5072610;28;20070;-72
2022/03/16 04:32:20;;;;;;;112.13;55.65;;;8.50;99.90;;;;;;5056807;28;20480;-72
2022/03/16 04:34:47;;;;;;;110.95;55.55;;;8.50;99.90;;;;;;5054346;28;20031;-72
2022/03/16 04:37:13;;;;;;;116.22;54.65;;;8.40;99.90;;;;;;5054385;28;20029;-72
2022/03/16 04:39:39;;;;;;;112.72;53.88;;;8.40;99.90;;;;;;5072338;28;20104;-72
2022/03/16 04:42:06;;;;;;;115.40;56.80;;;8.40;99.90;;;;;;5054408;28;20395;-72
2022/03/16 04:44:32;;;;;;;117.53;55.80;;;8.40;99.90;;;;;;5072193;28;20027;-72
2022/03/16 04:46:57;;;;;;;106.40;54.78;;;8.30;99.90;;;;;;5072187;28;20410;-72
2022/03/16 04:49:23;;;;;;;110.75;54.53;;;8.30;99.90;;;;;;5054234;28;20052;-72
2022/03/16 04:51:49;;;;;;;115.60;56.97;;;8.30;99.90;;;;;;5072135;28;20029;-72
2022/03/16 04:54:16;;;;;;;120.55;56.58;;;8.20;99.90;;;;;;5071818;28;20354;-72
2022/03/16 04:56:43;;;;;;;108.78;55.85;;;8.20;99.90;;;;;;5072123;28;20024;-72
2022/03/16 04:59:09;;;;;;;119.65;55.75;;;8.20;99.90;;;;;;5071868;28;20107;-72
2022/03/16 05:01:35;;;;;;;112.18;56.17;;;8.10;99.90;;;;;;5071845;28;20531;-72
2022/03/16 05:04:01;;;;;;;119.28;56.45;;;8.10;99.90;;;;;;5053650;28;20483;-72
2022/03/16 05:06:26;;;;;;;112.63;55.35;;;8.10;99.90;;;;;;5071910;28;20020;-72
2022/03/16 05:08:52;;;;;;;116.03;56.85;;;8.10;99.90;;;;;;5071591;28;20025;-72
2022/03/16 05:11:21;;;;;;;113.78;56.85;;;8.10;99.90;;;;;;5070982;28;20029;-72
2022/03/16 05:13:47;;;;;;;109.30;55.53;;;8.00;99.90;;;;;;5071754;28;20044;-72
2022/03/16 05:16:12;;;;;;;113.03;56.85;;;8.00;99.90;;;;;;5053841;28;20078;-72
2022/03/16 05:18:40;;;;;;;116.47;55.35;;;8.00;99.90;;;;;;5053402;28;20389;-72
2022/03/16 05:21:09;;;;;;;105.25;53.92;;;8.00;99.90;;;;;;5071721;28;20020;-72
2022/03/16 05:23:36;;;;;;;112.03;55.70;;;7.90;99.90;;;;;;5071546;28;20399;-72
2022/03/16 05:26:02;;;;;;;107.47;52.65;;;7.80;99.90;;;;;;5071575;28;20028;-72
2022/03/16 05:28:28;;;;;;;113.28;54.90;;;7.80;99.90;;;;;;5053400;28;20111;-72
2022/03/16 05:30:53;;;;;;;112.85;54.17;;;7.80;99.90;;;;;;5071570;28;20112;-72
2022/03/16 05:33:19;;;;;;;109.28;54.60;;;7.70;99.90;;;;;;5071452;28;20039;-72
2022/03/16 05:35:45;;;;;;;111.30;55.10;;;7.80;99.90;;;;;;5053267;28;20028;-72
2022/03/16 05:38:12;;;;;;;109.78;54.88;;;7.70;99.90;;;;;;5071134;28;20029;-72
2022/03/16 05:40:42;;;;;;;104.97;54.20;;;7.70;99.90;;;;;;5071311;28;20485;-72
2022/03/16 05:43:09;;;;;;;101.63;51.38;;;7.70;99.90;;;;;;5071166;28;20178;-72
2022/03/16 05:45:35;;;;;;;111.20;53.65;;;7.60;99.90;;;;;;5071245;28;20107;-72
2022/03/16 05:48:01;;;;;;;104.07;53.85;;;7.60;99.90;;;;;;5067684;28;20595;-72
2022/03/16 05:50:29;;;;;;;106.82;54.22;;;7.60;99.90;;;;;;5064514;28;20021;-72
2022/03/16 05:53:03;;;;;;;112.53;55.35;;;7.60;99.90;;;;;;5051790;28;20499;-72
2022/03/16 05:55:32;;;;;;;116.40;54.92;;;7.60;99.90;;;;;;5065231;28;20021;-72
2022/03/16 05:57:58;;;;;;;112.43;56.17;;;7.60;99.90;;;;;;5067401;28;20090;-72
2022/03/16 06:00:27;;;;;;;111.38;55.72;;;7.60;99.90;;;;;;5070816;28;20096;-72
2022/03/16 06:02:53;;;;;;;110.03;54.60;;;7.60;99.90;;;;;;5053179;28;20369;-72
2022/03/16 06:05:19;;;;;;;107.25;51.65;;;7.60;99.90;;;;;;5070924;28;20032;-72
2022/03/16 06:07:45;;;;;;;114.63;55.95;;;7.50;99.90;;;;;;5071240;28;20391;-72
2022/03/16 06:10:18;;;;;;;111.47;54.67;;;7.50;99.90;;;;;;5070956;28;20025;-72
2022/03/16 06:13:00;;;;;;;107.30;53.50;;;7.50;99.90;;;;;;5052890;28;20075;-72
2022/03/16 06:15:29;;;;;;;107.38;53.78;;;7.60;99.90;;;;;;5052081;28;20035;-72
2022/03/16 06:17:56;;;;;;;114.13;54.72;;;7.60;99.90;;;;;;5070381;28;20024;-72
2022/03/16 06:20:23;;;;;;;107.88;53.65;;;7.60;99.90;;;;;;5066074;28;20542;-72
2022/03/16 06:22:49;;;;;;;106.80;53.95;;;7.60;99.90;;;;;;5075690;28;20021;-72
2022/03/16 06:25:15;;;;;;;113.80;55.97;;;7.60;99.90;;;;;;5075338;28;20066;-72
2022/03/16 06:27:41;;;;;;;112.38;54.45;;;7.50;99.90;;;;;;5057738;28;20017;-72
2022/03/16 06:30:08;;;;;;;115.30;56.60;;;7.50;99.90;;;;;;5075896;28;20020;-72
2022/03/16 06:32:33;;;;;;;110.68;55.20;;;7.50;99.90;;;;;;5075597;28;20021;-71
2022/03/16 06:34:59;;;;;;;115.03;56.47;;;7.50;99.90;;;;;;5075867;28;20032;-72
2022/03/16 06:37:25;;;;;;;112.20;53.20;;;7.60;99.90;;;;;;5075346;28;20020;-72
2022/03/16 06:39:53;;;;;;;111.05;54.30;;;7.70;99.90;;;;;;5074786;28;20060;-72
2022/03/16 06:42:19;;;;;;;115.55;55.10;;;7.70;99.90;;;;;;5077694;28;20104;-72
2022/03/16 06:44:45;;;;;;;113.63;55.47;;;7.80;99.90;;;;;;5075018;28;20108;-72
2022/03/16 06:47:10;;;;;;;106.10;54.22;;;7.80;99.90;;;;;;5075210;28;20047;-72
2022/03/16 06:49:36;;;;;;;112.88;54.95;;;7.80;99.90;;;;;;5075510;28;20027;-72
2022/03/16 06:52:02;;;;;;;104.70;53.50;;;7.90;99.90;;;;;;5075138;28;20021;-72
2022/03/16 06:54:29;;;;;;;117.05;55.97;;;7.90;99.90;;;;;;5074634;28;20025;-76
2022/03/16 06:56:54;;;;;;;109.95;55.50;;;7.90;99.90;;;;;;5074715;28;20029;-76
2022/03/16 06:59:20;;;;;;;109.60;54.28;;;8.00;99.90;;;;;;5074649;28;20028;-76
2022/03/16 07:01:46;;;;;;;116.40;54.88;;;8.00;99.90;;;;;;5074683;28;20028;-76
2022/03/16 07:04:12;;;;;;;107.95;53.75;;;8.00;99.90;;;;;;5074197;28;20024;-76
2022/03/16 07:06:37;;;;;;;112.03;54.35;;;8.10;99.90;;;;;;5074484;28;20588;-76
2022/03/16 07:09:03;;;;;;;117.25;57.10;;;8.10;99.90;;;;;;5074343;28;20020;-76
2022/03/16 07:11:29;;;;;;;113.82;54.22;;;8.20;99.90;;;;;;5074304;28;20020;-76
2022/03/16 07:16:41;;;;;;;107.97;54.10;;;8.30;99.90;;;;;;5074297;28;20031;-76
2022/03/16 07:19:07;;;;;;;116.15;57.83;;;8.40;99.90;;;;;;5073826;28;20044;-76
2022/03/16 07:21:37;;;;;;;120.65;59.13;;;8.40;99.90;;;;;;5056039;28;20027;-76
2022/03/16 07:24:04;;;;;;;120.97;60.47;;;8.40;99.90;;;;;;5074072;28;20056;-76
2022/03/16 07:26:30;;;;;;;115.30;57.40;;;8.50;99.90;;;;;;5074348;28;20078;-76
2022/03/16 07:28:56;;;;;;;119.80;59.38;;;8.60;99.90;;;;;;5073819;28;20029;-76
2022/03/16 07:31:22;;;;;;;118.40;60.25;;;8.50;99.90;;;;;;5074160;28;20016;-76
2022/03/16 07:33:48;;;;;;;107.75;58.88;;;8.50;99.90;;;;;;5072994;28;20028;-76
2022/03/16 07:36:14;;;;;;;115.50;60.15;;;8.60;99.90;;;;;;5073779;28;20438;-76
2022/03/16 07:38:40;;;;;;;124.97;60.15;;;8.60;99.90;;;;;;5073781;28;20070;-76
2022/03/16 07:41:05;;;;;;;115.28;60.13;;;8.60;99.90;;;;;;5073311;28;20021;-76
2022/03/16 07:43:31;;;;;;;124.38;60.05;;;8.60;99.90;;;;;;5055713;28;20028;-76
2022/03/16 07:45:58;;;;;;;117.28;60.20;;;8.70;99.90;;;;;;5073994;28;20024;-76
2022/03/16 07:48:24;;;;;;;119.07;59.75;;;8.80;99.90;;;;;;5055504;28;20460;-76
2022/03/16 07:50:52;;;;;;;114.35;59.70;;;8.80;99.90;;;;;;5073521;28;20035;-76
2022/03/16 07:53:18;;;;;;;125.50;61.83;;;8.90;99.90;;;;;;5055544;28;20032;-76
2022/03/16 07:55:49;;;;;;;124.10;63.28;;;8.90;99.90;;;;;;5073551;28;20506;-76
2022/03/16 07:58:15;;;;;;;117.30;61.85;;;8.90;99.90;;;;;;5055489;28;20167;-76
2022/03/16 08:00:40;;;;;;;116.63;61.92;;;8.80;99.90;;;;;;5072988;28;20493;-76
2022/03/16 08:03:06;;;;;;;120.57;60.92;;;8.90;99.90;;;;;;5055349;28;20035;-75
2022/03/16 08:05:33;;;;;;;130.73;63.15;;;9.00;99.90;;;;;;5073089;28;20016;-75
2022/03/16 08:07:58;;;;;;;126.32;64.20;;;9.00;99.90;;;;;;5055175;28;20054;-76
2022/03/16 08:10:24;;;;;;;117.30;63.33;;;9.10;99.90;;;;;;5073254;28;20476;-76
2022/03/16 08:12:50;;;;;;;125.22;63.92;;;9.10;99.90;;;;;;5072839;28;20028;-75
2022/03/16 08:15:16;;;;;;;124.95;63.78;;;9.10;99.90;;;;;;5072789;28;20468;-76
2022/03/16 08:17:42;;;;;;;121.05;63.13;;;9.10;99.90;;;;;;5054990;28;20036;-76
2022/03/16 08:20:08;;;;;;;117.63;62.78;;;9.20;99.90;;;;;;5054699;28;20175;-76
2022/03/16 08:22:35;;;;;;;124.22;62.88;;;9.20;99.90;;;;;;5072837;28;20048;-76
2022/03/16 08:25:05;;;;;;;127.80;63.72;;;9.30;99.90;;;;;;5054715;28;20056;-76
2022/03/16 08:27:33;;;;;;;122.50;63.95;;;9.30;99.90;;;;;;5054850;28;20054;-76
2022/03/16 08:29:58;;;;;;;121.00;62.78;;;9.40;99.90;;;;;;5072480;28;20032;-76
2022/03/16 08:32:24;;;;;;;117.30;60.22;;;9.40;99.90;;;;;;5054507;28;20028;-76
2022/03/16 08:34:50;;;;;;;119.40;61.30;;;9.50;99.90;;;;;;5072262;28;20253;-76
2022/03/16 08:37:17;;;;;;;123.82;65.43;;;9.50;99.90;;;;;;5054604;28;20028;-76
2022/03/16 08:39:44;;;;;;;127.25;64.20;;;9.50;99.90;;;;;;5072217;28;20539;-76
2022/03/16 08:42:11;;;;;;;126.38;66.13;;;9.60;99.90;;;;;;5074746;28;20394;-76
2022/03/16 08:44:38;;;;;;;132.27;65.65;;;9.60;99.90;;;;;;5072155;28;20029;-76
2022/03/16 08:47:04;;;;;;;128.80;64.45;;;9.70;99.90;;;;;;5072172;28;20032;-76
2022/03/16 08:49:29;;;;;;;123.70;64.57;;;9.60;99.90;;;;;;5072318;28;20027;-76
2022/03/16 08:51:57;;;;;;;126.20;67.15;;;9.60;99.90;;;;;;5072238;28;20032;-76
2022/03/16 08:54:23;;;;;;;122.10;65.55;;;9.60;99.90;;;;;;5072023;28;20561;-76
2022/03/16 08:56:50;;;;;;;123.80;66.97;;;9.60;99.90;;;;;;5072053;28;20506;-76
2022/03/16 08:59:16;;;;;;;124.07;65.25;;;9.70;99.90;;;;;;5072042;28;20099;-76
2022/03/16 09:01:41;;;;;;;119.25;64.55;;;9.70;99.90;;;;;;5071967;28;20100;-76
2022/03/16 09:04:07;;;;;;;122.68;63.17;;;9.80;99.90;;;;;;5071831;28;20054;-76
2022/03/16 09:06:33;;;;;;;124.97;64.25;;;9.80;99.90;;;;;;5072066;28;20451;-76
2022/03/16 09:08:58;;;;;;;125.80;64.35;;;9.90;99.90;;;;;;5071735;28;20051;-76
2022/03/16 09:11:24;;;;;;;125.05;66.65;;;10.00;99.90;;;;;;5053870;28;20035;-76
2022/03/16 09:13:50;;;;;;;124.00;65.60;;;10.10;99.90;;;;;;5071774;28;20437;-76
2022/03/16 09:16:17;;;;;;;132.27;65.75;;;10.20;99.90;;;;;;5053786;28;20025;-76
2022/03/16 09:18:44;;;;;;;128.98;64.75;;;10.20;99.90;;;;;;5071515;28;20054;-76
2022/03/16 09:21:11;;;;;;;127.45;62.60;;;10.20;99.90;;;;;;5071801;28;20025;-76
2022/03/16 09:23:36;;;;;;;117.82;64.78;;;10.20;99.90;;;;;;5071561;28;20024;-76
2022/03/16 09:26:02;;;;;;;122.57;65.50;;;10.20;99.90;;;;;;5053728;28;20119;-76
2022/03/16 09:28:28;;;;;;;124.40;64.22;;;10.20;99.90;;;;;;5071714;28;20028;-76
2022/03/16 09:30:54;;;;;;;128.70;64.55;;;10.20;99.90;;;;;;5071477;28;20033;-76
2022/03/16 09:33:24;;;;;;;125.18;64.47;;;10.30;99.90;;;;;;5071537;28;20032;-76
2022/03/16 09:35:51;;;;;;;124.07;65.90;;;10.30;99.90;;;;;;5074959;22;20098;-76
2022/03/16 09:38:18;;;;;;;126.32;65.05;;;10.40;99.90;;;;;;5070364;28;20033;-76
2022/03/16 09:40:45;;;;;;;131.18;66.93;;;10.50;99.90;;;;;;5071744;28;20411;-76
2022/03/16 09:43:17;;;;;;;121.05;64.82;;;10.60;99.90;;;;;;5072013;28;20021;-76
2022/03/16 09:45:57;;;;;;;122.90;61.60;;;10.70;99.90;;;;;;5092819;28;20027;-76
2022/03/16 09:48:23;;;;;;;136.98;66.30;;;10.80;99.90;;;;;;5074009;28;20048;-76
2022/03/16 09:50:54;;;;;;;127.95;67.88;;;10.80;99.90;;;;;;5091705;28;20020;-76
2022/03/16 09:53:21;;;;;;;128.00;65.88;;;10.80;99.90;;;;;;5091604;28;20111;-76
2022/03/16 09:55:46;;;;;;;125.53;66.25;;;10.90;99.90;;;;;;5091300;28;20028;-76
2022/03/16 09:58:13;;;;;;;124.38;66.22;;;11.00;99.90;;;;;;5073094;28;20034;-76
2022/03/16 10:00:42;;;;;;;127.95;65.82;;;11.00;99.90;;;;;;5073506;28;20115;-77
2022/03/16 10:03:07;;;;;;;134.63;67.05;;;11.10;99.90;;;;;;5091260;28;20028;-76
2022/03/16 10:05:34;;;;;;;127.07;63.70;;;11.20;99.90;;;;;;5091489;28;20020;-76
2022/03/16 10:08:02;;;;;;;128.93;67.88;;;11.30;99.90;;;;;;5091602;28;20028;-76
2022/03/16 10:13:19;;;;;;;125.82;66.97;;;11.40;99.90;;;;;;5092961;28;20043;-77
2022/03/16 10:15:46;;;;;;;136.63;70.28;;;11.50;99.90;;;;;;5074290;28;20030;-77
2022/03/16 10:18:16;;;;;;;122.32;65.20;;;11.40;99.90;;;;;;5073210;28;20031;-77
2022/03/16 10:20:46;;;;;;;123.97;65.95;;;11.50;99.90;;;;;;5091248;28;20451;-77
2022/03/16 10:23:28;;;;;;;118.03;64.45;;;11.50;99.90;;;;;;5073224;28;20032;-77
2022/03/16 10:25:55;;;;;;;125.38;64.90;;;11.60;99.90;;;;;;5073966;28;20067;-77
2022/03/16 10:28:32;;;;;;;124.88;63.80;;;11.60;99.90;;;;;;5092178;28;20008;-77
2022/03/16 10:31:06;;;;;;;121.63;60.72;;;11.70;99.90;;;;;;5073360;28;20031;-77
2022/03/16 10:33:36;;;;;;;122.45;62.47;;;11.80;99.90;;;;;;5091738;28;20028;-77
2022/03/16 10:36:10;;;;;;;121.55;61.63;;;11.80;99.90;;;;;;5091480;28;20106;-77
2022/03/16 10:38:54;;;;;;;117.00;60.50;;;12.00;99.90;;;;;;5070659;28;20089;-78
2022/03/16 10:47:16;;;;;;;118.90;60.85;;;12.20;99.90;;;;;;5089235;28;20447;-78
2022/03/16 10:49:43;;;;;;;114.28;61.22;;;12.20;99.90;;;;;;5088521;28;20077;-78
2022/03/16 10:52:14;;;;;;;116.97;59.97;;;12.30;99.90;;;;;;5089668;28;20497;-77
2022/03/16 10:54:43;;;;;;;117.70;59.47;;;12.30;99.90;;;;;;5087187;28;20601;-78
2022/03/16 10:57:13;;;;;;;113.88;59.55;;;12.30;99.90;;;;;;5087059;28;20031;-76
2022/03/16 10:59:42;;;;;;;114.90;58.88;;;12.30;99.90;;;;;;5086549;28;20024;-77
2022/03/16 11:02:13;;;;;;;122.72;59.38;;;12.40;99.90;;;;;;5089573;28;20020;-78
2022/03/16 11:04:45;;;;;;;105.50;57.28;;;12.40;99.90;;;;;;5089632;28;20115;-78
2022/03/16 11:07:11;;;;;;;118.40;57.35;;;12.50;99.90;;;;;;5089466;28;20024;-79
2022/03/16 11:09:38;;;;;;;117.22;58.72;;;12.50;99.90;;;;;;5093257;28;20032;-78
2022/03/16 11:14:51;;;;;;;115.78;56.60;;;12.50;99.90;;;;;;5095685;28;20031;-73
2022/03/16 11:17:18;;;;;;;111.22;56.97;;;12.60;99.90;;;;;;5077380;28;20118;-73
2022/03/16 11:19:46;;;;;;;105.32;55.40;;;12.60;99.90;;;;;;5095419;28;20028;-73
2022/03/16 11:22:24;;;;;;;105.55;54.65;;;12.70;99.90;;;;;;5095578;28;20099;-73
2022/03/16 11:25:14;;;;;;;105.88;54.88;;;12.70;99.90;;;;;;5095146;28;20028;-72
2022/03/16 11:27:49;;;;;;;114.30;55.20;;;12.90;99.90;;;;;;5095090;28;20500;-79
2022/03/16 11:30:33;;;;;;;100.25;51.95;;;13.00;99.90;;;;;;5094182;28;20028;-79
2022/03/16 11:33:19;;;;;;;116.38;56.65;;;13.10;99.90;;;;;;5056020;28;20052;-79
2022/03/16 11:35:45;;;;;;;113.03;53.88;;;13.10;99.90;;;;;;5073543;28;20025;-79
2022/03/16 11:38:15;;;;;;;102.70;53.60;;;13.20;99.90;;;;;;5074043;28;20028;-79
2022/03/16 11:40:47;;;;;;;96.93;49.40;;;13.30;99.90;;;;;;5073890;28;20059;-78
2022/03/16 11:43:23;;;;;;;91.55;47.78;;;13.30;99.90;;;;;;5057101;28;20050;-78
2022/03/16 11:45:57;;;;;;;92.10;45.67;;;13.20;99.90;;;;;;5092543;28;20390;-79
2022/03/16 11:48:31;;;;;;;103.38;50.47;;;13.30;99.90;;;;;;5075869;28;20024;-79
2022/03/16 11:51:08;;;;;;;100.68;52.03;;;13.40;99.90;;;;;;5075752;28;20032;-79
2022/03/16 11:53:46;;;;;;;92.63;45.95;;;13.60;99.90;;;;;;5093661;28;20510;-79
2022/03/16 11:56:29;;;;;;;91.55;46.08;;;13.60;99.90;;;;;;5093735;28;20027;-79
2022/03/16 11:59:05;;;;;;;92.88;45.97;;;13.60;99.90;;;;;;5093727;28;20063;-80
2022/03/16 12:01:37;;;;;;;96.28;47.75;;;13.70;99.90;;;;;;5093683;28;20032;-79
2022/03/16 12:04:15;;;;;;;85.57;45.17;;;13.80;99.90;;;;;;5093638;28;20487;-79
2022/03/16 12:07:05;;;;;;;84.40;41.20;;;13.80;99.90;;;;;;5075530;28;20024;-79
2022/03/16 12:09:40;;;;;;;84.75;40.92;;;14.00;99.90;;;;;;5093548;28;20031;-80
2022/03/16 12:15:12;;;;;;;79.10;40.08;;;14.10;99.90;;;;;;5037469;28;20489;-78
2022/03/16 12:17:40;;;;;;;73.78;39.25;;;14.20;99.90;;;;;;5093471;28;20479;-80
2022/03/16 12:20:10;;;;;;;77.82;41.55;;;14.20;99.90;;;;;;5092844;28;20024;-80
2022/03/16 12:22:46;;;;;;;79.82;41.20;;;14.20;99.90;;;;;;5093096;28;20020;-79
2022/03/16 12:25:27;;;;;;;72.00;37.67;;;14.20;99.90;;;;;;5093365;28;20032;-79
2022/03/16 12:30:52;;;;;;;79.10;37.92;;;14.20;99.90;;;;;;5093491;28;20035;-80
2022/03/16 12:33:22;;;;;;;74.78;37.58;;;14.30;99.90;;;;;;5091957;28;20024;-79
2022/03/16 12:35:49;;;;;;;71.75;35.85;;;14.30;99.90;;;;;;5074788;28;20024;-80
2022/03/16 12:38:16;;;;;;;77.55;39.72;;;14.40;99.90;;;;;;5092852;28;20035;-80
2022/03/16 12:43:27;;;;;;;83.93;38.78;;;14.50;99.90;;;;;;5092933;28;20560;-80
2022/03/16 12:46:34;;;;;;;70.50;34.15;;;14.50;99.90;;;;;;5092945;28;20419;-80
2022/03/16 12:49:06;;;;;;;76.85;37.05;;;14.60;99.90;;;;;;4990976;28;20030;-79
2022/03/16 12:51:39;;;;;;;73.25;37.55;;;14.60;99.90;;;;;;5079916;28;20392;-80